createdAt,value
2023-01-26T00:00:34.717Z,15.60
2023-01-26T00:03:03.660Z,15.60
2023-01-26T00:05:39.114Z,15.60
2023-01-26T00:08:13.759Z,15.60
2023-01-26T00:10:51.243Z,15.70
2023-01-26T00:13:24.092Z,15.70
2023-01-26T00:15:53.077Z,15.70
2023-01-26T00:18:21.985Z,15.80
2023-01-26T00:20:56.461Z,15.80
2023-01-26T00:23:25.756Z,15.90
2023-01-26T00:25:54.784Z,15.90
2023-01-26T00:28:24.095Z,16.00
2023-01-26T00:30:53.009Z,16.10
2023-01-26T00:33:22.005Z,16.10
2023-01-26T00:35:57.389Z,16.30
2023-01-26T00:38:26.357Z,16.30
2023-01-26T00:40:55.515Z,16.40
2023-01-26T00:43:24.461Z,16.50
2023-01-26T00:45:53.544Z,16.60
2023-01-26T00:48:24.573Z,16.70
2023-01-26T00:50:54.593Z,16.80
2023-01-26T00:53:23.544Z,16.90
2023-01-26T00:55:54.519Z,17.00
2023-01-26T00:58:23.519Z,17.10
2023-01-26T01:00:54.903Z,17.20
2023-01-26T01:03:23.765Z,17.30
2023-01-26T01:05:53.974Z,17.50
2023-01-26T01:08:22.842Z,17.60
2023-01-26T01:10:51.690Z,17.80
2023-01-26T01:13:20.561Z,17.90
2023-01-26T01:15:49.438Z,18.10
2023-01-26T01:18:18.350Z,18.30
2023-01-26T01:20:47.226Z,18.40
2023-01-26T01:23:16.100Z,18.60
2023-01-26T01:25:45.073Z,18.80
2023-01-26T01:28:13.945Z,18.90
2023-01-26T01:30:42.941Z,19.10
2023-01-26T01:33:11.831Z,19.30
2023-01-26T01:35:40.694Z,19.40
2023-01-26T01:38:09.636Z,19.60
2023-01-26T01:40:43.861Z,19.80
2023-01-26T01:43:13.666Z,19.90
2023-01-26T01:45:47.973Z,20.00
2023-01-26T01:48:19.849Z,20.10
2023-01-26T01:50:50.391Z,20.20
2023-01-26T01:53:28.376Z,20.40
2023-01-26T01:56:02.437Z,20.50
2023-01-26T01:58:33.488Z,20.60
2023-01-26T02:01:02.478Z,20.80
2023-01-26T02:03:33.747Z,21.00
2023-01-26T02:06:24.099Z,21.10
2023-01-26T02:08:58.053Z,21.30
2023-01-26T02:11:38.026Z,21.40
2023-01-26T02:14:10.542Z,21.50
2023-01-26T02:16:41.152Z,21.60
2023-01-26T02:19:18.392Z,21.80
2023-01-26T02:21:49.610Z,22.00
2023-01-26T02:24:28.559Z,22.20
2023-01-26T02:26:58.415Z,22.40
2023-01-26T02:29:27.492Z,22.50
2023-01-26T02:31:57.334Z,22.70
2023-01-26T02:34:29.995Z,22.80
2023-01-26T02:37:01.198Z,22.90
2023-01-26T02:39:45.453Z,23.10
2023-01-26T02:42:33.260Z,23.30
2023-01-26T02:45:02.215Z,23.40
2023-01-26T02:47:31.171Z,23.60
2023-01-26T02:50:01.585Z,23.80
2023-01-26T02:52:34.407Z,23.90
2023-01-26T02:55:21.655Z,24.10
2023-01-26T02:57:52.170Z,24.20
2023-01-26T03:00:27.558Z,24.30
2023-01-26T03:02:59.729Z,24.40
2023-01-26T03:05:29.682Z,24.50
2023-01-26T03:07:58.554Z,24.60
2023-01-26T03:10:28.125Z,24.60
2023-01-26T03:12:57.198Z,24.70
2023-01-26T03:15:44.237Z,24.80
2023-01-26T03:18:36.871Z,24.80
2023-01-26T03:21:26.535Z,25.00
2023-01-26T03:24:13.485Z,25.20
2023-01-26T03:27:01.075Z,25.40
2023-01-26T03:29:31.345Z,25.60
2023-01-26T03:32:00.486Z,25.70
2023-01-26T03:34:30.730Z,25.70
2023-01-26T03:36:59.859Z,25.60
2023-01-26T03:39:47.088Z,25.50
2023-01-26T03:42:34.337Z,25.50
2023-01-26T03:45:21.360Z,25.50
2023-01-26T03:48:08.319Z,25.60
2023-01-26T03:50:55.555Z,25.70
2023-01-26T03:53:44.272Z,25.80
2023-01-26T03:56:19.473Z,25.90
2023-01-26T03:58:49.872Z,26.20
2023-01-26T04:01:22.216Z,26.40
2023-01-26T04:04:11.051Z,26.50
2023-01-26T04:06:59.599Z,26.60
2023-01-26T04:09:28.661Z,26.90
2023-01-26T04:11:57.638Z,27.10
2023-01-26T04:14:49.670Z,27.30
2023-01-26T04:17:38.317Z,27.50
2023-01-26T04:20:26.262Z,27.60
2023-01-26T04:22:55.193Z,27.60
2023-01-26T04:25:31.573Z,27.70
2023-01-26T04:28:00.631Z,27.80
2023-01-26T04:30:32.173Z,27.90
2023-01-26T04:33:01.115Z,27.90
2023-01-26T04:35:30.086Z,27.80
2023-01-26T04:37:59.079Z,27.80
2023-01-26T04:40:28.034Z,27.80
2023-01-26T04:43:02.594Z,27.90
2023-01-26T04:45:34.136Z,28.00
2023-01-26T04:48:03.102Z,28.10
2023-01-26T04:50:32.019Z,28.20
2023-01-26T04:53:01.056Z,28.20
2023-01-26T04:55:30.132Z,28.30
2023-01-26T04:57:59.501Z,28.30
2023-01-26T05:00:28.423Z,28.40
2023-01-26T05:02:57.348Z,28.20
2023-01-26T05:05:26.199Z,28.20
2023-01-26T05:07:55.129Z,28.10
2023-01-26T05:10:24.315Z,28.20
2023-01-26T05:12:53.219Z,28.30
2023-01-26T05:15:22.396Z,28.50
2023-01-26T05:17:51.312Z,28.60
2023-01-26T05:20:20.342Z,28.70
2023-01-26T05:22:49.302Z,28.80
2023-01-26T05:25:18.233Z,28.90
2023-01-26T05:27:47.130Z,28.90
2023-01-26T05:30:16.853Z,28.90
2023-01-26T05:32:45.943Z,29.00
2023-01-26T05:35:14.830Z,29.10
2023-01-26T05:37:43.863Z,29.10
2023-01-26T05:40:14.136Z,29.00
2023-01-26T05:42:45.147Z,29.00
2023-01-26T05:45:14.033Z,29.00
2023-01-26T05:47:45.587Z,29.10
2023-01-26T05:50:16.078Z,29.10
2023-01-26T05:52:47.724Z,29.00
2023-01-26T05:55:16.770Z,29.10
2023-01-26T05:57:45.724Z,29.00
2023-01-26T06:00:15.875Z,29.10
2023-01-26T06:02:46.303Z,29.10
2023-01-26T06:05:16.435Z,29.10
2023-01-26T06:07:45.404Z,29.10
2023-01-26T06:10:14.409Z,29.10
2023-01-26T06:12:44.158Z,29.10
2023-01-26T06:15:13.804Z,29.10
2023-01-26T06:17:43.019Z,29.20
2023-01-26T06:20:13.554Z,29.10
2023-01-26T06:22:42.707Z,29.20
2023-01-26T06:25:11.693Z,29.20
2023-01-26T06:27:43.114Z,29.20
2023-01-26T06:30:14.326Z,29.20
2023-01-26T06:32:43.148Z,29.20
2023-01-26T06:35:12.070Z,29.30
2023-01-26T06:37:43.309Z,29.30
2023-01-26T06:40:13.086Z,29.30
2023-01-26T06:42:42.184Z,29.40
2023-01-26T06:45:11.540Z,29.40
2023-01-26T06:47:40.446Z,29.40
2023-01-26T06:50:10.076Z,29.40
2023-01-26T06:52:40.379Z,29.40
2023-01-26T06:55:45.771Z,29.40
2023-01-26T06:58:14.647Z,29.50
2023-01-26T07:00:43.513Z,29.60
2023-01-26T07:03:13.060Z,29.80
2023-01-26T07:05:42.065Z,29.90
2023-01-26T07:08:13.087Z,30.10
2023-01-26T07:10:42.135Z,30.20
2023-01-26T07:13:11.089Z,30.10
2023-01-26T07:15:39.994Z,30.00
2023-01-26T07:18:09.050Z,29.90
2023-01-26T07:20:38.994Z,29.90
2023-01-26T07:23:07.878Z,30.00
2023-01-26T07:25:36.943Z,30.00
2023-01-26T07:28:06.108Z,30.10
2023-01-26T07:30:35.354Z,30.20
2023-01-26T07:33:04.556Z,30.30
2023-01-26T07:35:33.472Z,30.40
2023-01-26T07:38:07.943Z,30.60
2023-01-26T07:40:36.858Z,30.80
2023-01-26T07:43:05.743Z,30.90
2023-01-26T07:45:38.049Z,31.10
2023-01-26T07:48:07.098Z,31.10
2023-01-26T07:50:35.978Z,31.00
2023-01-26T07:53:05.171Z,30.80
2023-01-26T07:55:34.132Z,30.60
2023-01-26T07:58:07.018Z,30.60
2023-01-26T08:00:35.894Z,30.60
2023-01-26T08:03:04.758Z,30.70
2023-01-26T08:05:34.713Z,30.90
2023-01-26T08:08:03.947Z,30.90
2023-01-26T08:10:33.396Z,30.90
2023-01-26T08:13:03.076Z,30.90
2023-01-26T08:15:32.407Z,30.90
2023-01-26T08:18:05.591Z,30.90
2023-01-26T08:20:39.250Z,30.90
2023-01-26T08:23:07.693Z,30.90
2023-01-26T08:25:36.753Z,31.00
2023-01-26T08:28:05.734Z,31.20
2023-01-26T08:30:34.714Z,31.30
2023-01-26T08:33:04.137Z,31.40
2023-01-26T08:35:36.607Z,31.40
2023-01-26T08:38:05.828Z,31.50
2023-01-26T08:40:37.738Z,31.60
2023-01-26T08:43:06.666Z,31.60
2023-01-26T08:45:35.605Z,31.40
2023-01-26T08:48:04.499Z,31.40
2023-01-26T08:50:40.553Z,31.30
2023-01-26T08:53:09.998Z,31.20
2023-01-26T08:55:39.052Z,31.20
2023-01-26T08:58:08.056Z,31.10
2023-01-26T09:00:37.012Z,31.10
2023-01-26T09:03:07.537Z,31.10
2023-01-26T09:05:41.240Z,31.20
2023-01-26T09:08:10.897Z,31.20
2023-01-26T09:10:40.572Z,31.20
2023-01-26T09:13:09.559Z,31.20
2023-01-26T09:15:40.394Z,31.20
2023-01-26T09:18:09.548Z,31.20
2023-01-26T09:20:40.684Z,31.10
2023-01-26T09:23:09.960Z,31.10
2023-01-26T09:25:39.392Z,31.00
2023-01-26T09:28:08.738Z,30.90
2023-01-26T09:30:37.814Z,30.80
2023-01-26T09:33:07.991Z,30.70
2023-01-26T09:35:36.884Z,30.60
2023-01-26T09:38:05.810Z,30.50
2023-01-26T09:41:10.128Z,30.30
2023-01-26T09:43:47.222Z,30.20
2023-01-26T09:46:45.200Z,30.10
2023-01-26T09:49:36.172Z,30.00
2023-01-26T09:52:28.833Z,29.90
2023-01-26T09:55:01.680Z,29.90
2023-01-26T09:57:46.120Z,29.80
2023-01-26T10:00:26.887Z,29.70
2023-01-26T10:03:12.132Z,29.60
2023-01-26T10:05:54.846Z,29.50
2023-01-26T10:08:28.093Z,29.40
2023-01-26T10:11:05.600Z,29.30
2023-01-26T10:13:35.770Z,29.20
2023-01-26T10:16:11.686Z,29.10
2023-01-26T10:19:05.399Z,29.00
2023-01-26T10:21:39.012Z,28.90
2023-01-26T10:24:11.202Z,28.80
2023-01-26T10:26:40.144Z,28.70
2023-01-26T10:29:14.558Z,28.60
2023-01-26T10:31:43.699Z,28.50
2023-01-26T10:34:24.546Z,28.40
2023-01-26T10:37:04.001Z,28.40
2023-01-26T10:39:32.916Z,28.30
2023-01-26T10:42:05.579Z,28.20
2023-01-26T10:44:36.983Z,28.20
2023-01-26T10:47:27.080Z,28.00
2023-01-26T10:50:25.761Z,28.00
2023-01-26T10:53:03.251Z,27.80
2023-01-26T10:55:34.711Z,27.70
2023-01-26T10:58:03.719Z,27.60
2023-01-26T11:00:35.412Z,27.50
2023-01-26T11:03:20.715Z,27.40
2023-01-26T11:06:15.429Z,27.30
2023-01-26T11:08:44.452Z,27.20
2023-01-26T11:11:31.091Z,27.10
2023-01-26T11:14:20.458Z,27.00
2023-01-26T11:17:21.154Z,26.90
2023-01-26T11:20:11.837Z,26.80
2023-01-26T11:23:07.568Z,26.70
2023-01-26T11:25:52.377Z,26.60
2023-01-26T11:28:53.674Z,26.40
2023-01-26T11:31:34.004Z,26.30
2023-01-26T11:34:24.073Z,26.20
2023-01-26T11:37:25.361Z,26.10
2023-01-26T11:40:15.572Z,26.00
2023-01-26T11:43:13.273Z,25.90
2023-01-26T11:46:03.853Z,25.80
2023-01-26T11:48:53.950Z,25.60
2023-01-26T11:51:53.362Z,25.50
2023-01-26T11:54:49.571Z,25.40
2023-01-26T11:57:24.474Z,25.30
2023-01-26T12:00:07.218Z,25.20
2023-01-26T12:02:40.402Z,25.10
2023-01-26T12:05:22.245Z,25.10
2023-01-26T12:08:02.633Z,25.00
2023-01-26T12:10:59.098Z,24.90
2023-01-26T12:13:41.976Z,24.80
2023-01-26T12:16:27.487Z,24.80
2023-01-26T12:19:11.608Z,24.70
2023-01-26T12:21:45.014Z,24.70
2023-01-26T12:27:45.361Z,24.60
2023-01-26T12:30:36.562Z,24.50
2023-01-26T12:33:05.772Z,24.40
2023-01-26T12:35:58.570Z,24.30
2023-01-26T12:39:09.124Z,24.30
2023-01-26T12:42:01.168Z,24.30
2023-01-26T12:44:52.022Z,24.20
2023-01-26T12:47:33.249Z,24.20
2023-01-26T12:50:05.331Z,24.10
2023-01-26T12:52:49.464Z,24.00
2023-01-26T12:55:22.566Z,24.10
2023-01-26T12:57:54.596Z,24.00
2023-01-26T13:00:31.688Z,24.00
2023-01-26T13:03:15.904Z,24.00
2023-01-26T13:06:10.963Z,23.90
2023-01-26T13:08:39.782Z,23.90
2023-01-26T13:11:10.554Z,23.80
2023-01-26T13:13:57.193Z,23.80
2023-01-26T13:16:26.027Z,23.70
2023-01-26T13:18:59.683Z,23.60
2023-01-26T13:21:41.708Z,23.60
2023-01-26T13:24:36.747Z,23.60
2023-01-26T13:27:32.614Z,23.60
2023-01-26T13:30:02.408Z,23.50
2023-01-26T13:32:37.545Z,23.50
2023-01-26T13:35:14.926Z,23.50
2023-01-26T13:37:54.944Z,23.50
2023-01-26T13:40:26.704Z,23.40
2023-01-26T13:43:30.064Z,23.40
2023-01-26T13:46:21.457Z,23.40
2023-01-26T13:48:57.990Z,23.40
2023-01-26T13:51:35.730Z,23.30
2023-01-26T13:54:13.695Z,23.20
2023-01-26T13:56:44.588Z,23.10
2023-01-26T13:59:14.994Z,23.10
2023-01-26T14:01:53.460Z,23.00
2023-01-26T14:04:25.620Z,23.00
2023-01-26T14:07:03.598Z,22.90
2023-01-26T14:09:35.254Z,22.80
2023-01-26T14:12:06.757Z,22.80
2023-01-26T14:14:38.841Z,22.70
2023-01-26T14:17:25.857Z,22.60
2023-01-26T14:19:55.169Z,22.60
2023-01-26T14:22:24.390Z,22.50
2023-01-26T14:24:54.953Z,22.50
2023-01-26T14:27:39.098Z,22.40
2023-01-26T14:30:35.435Z,22.40
2023-01-26T14:33:14.746Z,22.40
2023-01-26T14:35:45.630Z,22.30
2023-01-26T14:38:14.523Z,22.20
2023-01-26T14:40:48.131Z,22.20
2023-01-26T14:43:17.808Z,22.10
2023-01-26T14:46:25.425Z,22.10
2023-01-26T14:49:10.733Z,22.00
2023-01-26T14:51:40.034Z,22.00
2023-01-26T14:54:19.852Z,21.90
2023-01-26T14:56:50.088Z,21.90
2023-01-26T14:59:35.213Z,21.80
2023-01-26T15:02:15.409Z,21.80
2023-01-26T15:04:49.824Z,21.80
2023-01-26T15:07:40.107Z,21.80
2023-01-26T15:10:38.373Z,21.70
2023-01-26T15:13:25.026Z,21.70
2023-01-26T15:16:09.111Z,21.70
2023-01-26T15:18:38.144Z,21.70
2023-01-26T15:21:17.257Z,21.70
2023-01-26T15:23:50.861Z,21.80
2023-01-26T15:26:33.284Z,21.70
2023-01-26T15:29:27.204Z,21.80
2023-01-26T15:31:58.392Z,21.70
2023-01-26T15:34:43.274Z,21.70
2023-01-26T15:37:37.159Z,21.70
2023-01-26T15:40:06.733Z,21.70
2023-01-26T15:42:35.652Z,21.60
2023-01-26T15:45:04.617Z,21.60
2023-01-26T15:47:33.452Z,21.60
2023-01-26T15:50:02.522Z,21.60
2023-01-26T15:52:31.848Z,21.60
2023-01-26T15:55:00.708Z,21.60
2023-01-26T15:57:31.527Z,21.50
2023-01-26T16:00:02.512Z,21.40
2023-01-26T16:02:32.521Z,21.30
2023-01-26T16:05:01.428Z,21.20
2023-01-26T16:07:30.533Z,21.10
2023-01-26T16:10:01.118Z,21.00
2023-01-26T16:12:32.033Z,21.00
2023-01-26T16:15:01.466Z,20.90
2023-01-26T16:17:30.549Z,20.80
2023-01-26T16:19:59.470Z,20.80
2023-01-26T16:22:28.400Z,20.70
2023-01-26T16:24:57.237Z,20.60
2023-01-26T16:27:26.169Z,20.50
2023-01-26T16:29:55.070Z,20.50
2023-01-26T16:32:31.007Z,20.50
2023-01-26T16:35:00.376Z,20.40
2023-01-26T16:37:31.588Z,20.40
2023-01-26T16:40:00.460Z,20.30
2023-01-26T16:42:29.330Z,20.30
2023-01-26T16:44:58.584Z,20.30
2023-01-26T16:47:27.531Z,20.20
2023-01-26T16:49:56.414Z,20.20
2023-01-26T16:52:25.319Z,20.20
2023-01-26T16:54:55.128Z,20.10
2023-01-26T16:57:24.037Z,20.10
2023-01-26T16:59:53.111Z,20.10
2023-01-26T17:02:29.142Z,20.10
2023-01-26T17:04:57.988Z,20.10
2023-01-26T17:07:26.922Z,20.10
2023-01-26T17:09:55.881Z,20.10
2023-01-26T17:12:24.953Z,20.10
2023-01-26T17:14:54.064Z,20.10
2023-01-26T17:17:22.980Z,20.10
2023-01-26T17:19:51.938Z,20.10
2023-01-26T17:22:20.913Z,20.20
2023-01-26T17:24:49.764Z,20.20
2023-01-26T17:27:18.827Z,20.10
2023-01-26T17:29:50.410Z,20.10
2023-01-26T17:32:26.428Z,20.10
2023-01-26T17:34:56.205Z,20.10
2023-01-26T17:37:28.106Z,20.10
2023-01-26T17:39:57.623Z,20.10
2023-01-26T17:42:26.784Z,20.10
2023-01-26T17:44:55.750Z,20.00
2023-01-26T17:47:25.555Z,20.00
2023-01-26T17:49:54.449Z,20.00
2023-01-26T17:52:23.331Z,20.00
2023-01-26T17:54:52.279Z,20.00
2023-01-26T17:57:21.369Z,20.00
2023-01-26T17:59:50.331Z,20.00
2023-01-26T18:02:19.365Z,20.00
2023-01-26T18:04:48.240Z,19.90
2023-01-26T18:07:17.174Z,19.90
2023-01-26T18:09:46.071Z,19.90
2023-01-26T18:12:14.948Z,19.90
2023-01-26T18:14:43.859Z,19.90
2023-01-26T18:17:12.801Z,19.90
2023-01-26T18:19:41.643Z,19.90
2023-01-26T18:22:10.526Z,19.90
2023-01-26T18:24:39.625Z,19.90
2023-01-26T18:27:08.734Z,19.90
2023-01-26T18:29:37.605Z,19.90
2023-01-26T18:32:07.314Z,19.90
2023-01-26T18:34:36.286Z,19.80
2023-01-26T18:37:05.150Z,19.80
2023-01-26T18:39:34.502Z,19.70
2023-01-26T18:42:03.364Z,19.70
2023-01-26T18:44:32.520Z,19.70
2023-01-26T18:47:01.480Z,19.60
2023-01-26T18:49:30.435Z,19.60
2023-01-26T18:51:59.341Z,19.50
2023-01-26T18:54:28.353Z,19.50
2023-01-26T18:56:58.072Z,19.50
2023-01-26T18:59:27.241Z,19.40
2023-01-26T19:01:56.485Z,19.40
2023-01-26T19:04:25.402Z,19.40
2023-01-26T19:06:54.276Z,19.30
2023-01-26T19:09:23.629Z,19.30
2023-01-26T19:11:56.570Z,19.30
2023-01-26T19:14:25.560Z,19.20
2023-01-26T19:16:55.111Z,19.10
2023-01-26T19:19:24.359Z,19.10
2023-01-26T19:21:53.231Z,19.00
2023-01-26T19:24:22.267Z,19.00
2023-01-26T19:26:51.193Z,19.00
2023-01-26T19:29:20.111Z,19.00
2023-01-26T19:31:48.992Z,18.90
2023-01-26T19:34:18.472Z,19.00
2023-01-26T19:36:47.956Z,19.00
2023-01-26T19:39:16.905Z,19.10
2023-01-26T19:41:47.382Z,19.20
2023-01-26T19:44:16.243Z,19.30
2023-01-26T19:46:45.164Z,19.40
2023-01-26T19:49:14.603Z,19.40
2023-01-26T19:51:43.518Z,19.50
2023-01-26T19:54:12.584Z,19.60
2023-01-26T19:56:41.617Z,19.60
2023-01-26T19:59:12.694Z,19.60
2023-01-26T20:01:41.731Z,19.70
2023-01-26T20:04:15.004Z,19.60
2023-01-26T20:06:43.948Z,19.60
2023-01-26T20:09:12.836Z,19.60
2023-01-26T20:11:41.784Z,19.50
2023-01-26T20:14:12.692Z,19.50
2023-01-26T20:16:41.905Z,19.40
2023-01-26T20:19:12.575Z,19.40
2023-01-26T20:21:42.139Z,19.40
2023-01-26T20:24:15.402Z,19.40
2023-01-26T20:26:45.550Z,19.30
2023-01-26T20:29:17.857Z,19.30
2023-01-26T20:31:48.101Z,19.30
2023-01-26T20:34:17.324Z,19.30
2023-01-26T20:36:46.596Z,19.40
2023-01-26T20:39:25.609Z,19.40
2023-01-26T20:41:55.158Z,19.40
2023-01-26T20:44:24.135Z,19.40
2023-01-26T20:46:53.179Z,19.40
2023-01-26T20:49:22.594Z,19.40
2023-01-26T20:51:51.568Z,19.40
2023-01-26T20:54:20.666Z,19.40
2023-01-26T20:56:51.275Z,19.40
2023-01-26T20:59:20.289Z,19.30
2023-01-26T21:01:49.246Z,19.30
2023-01-26T21:04:18.235Z,19.30
2023-01-26T21:06:47.145Z,19.30
2023-01-26T21:09:16.044Z,19.20
2023-01-26T21:11:44.963Z,19.10
2023-01-26T21:14:17.165Z,19.10
2023-01-26T21:16:46.129Z,19.10
2023-01-26T21:19:15.037Z,19.00
2023-01-26T21:21:45.452Z,18.90
2023-01-26T21:24:14.374Z,18.80
2023-01-26T21:26:43.264Z,18.70
2023-01-26T21:29:16.340Z,18.60
2023-01-26T21:31:46.942Z,18.60
2023-01-26T21:34:16.075Z,18.50
2023-01-26T21:36:44.966Z,18.50
2023-01-26T21:39:16.033Z,18.50
2023-01-26T21:41:56.719Z,18.40
2023-01-26T21:44:31.037Z,18.40
2023-01-26T21:47:01.081Z,18.40
2023-01-26T21:49:30.728Z,18.40
2023-01-26T21:52:17.894Z,18.40
2023-01-26T21:54:46.815Z,18.30
2023-01-26T21:57:34.092Z,18.30
2023-01-26T22:00:03.030Z,18.20
2023-01-26T22:02:31.917Z,18.20
2023-01-26T22:05:00.845Z,18.20
2023-01-26T22:07:33.236Z,18.10
2023-01-26T22:10:02.144Z,18.10
2023-01-26T22:12:31.470Z,18.10
2023-01-26T22:15:00.630Z,18.00
2023-01-26T22:17:29.559Z,18.00
2023-01-26T22:20:00.568Z,17.90
2023-01-26T22:22:29.518Z,17.90
2023-01-26T22:24:58.865Z,17.80
2023-01-26T22:27:27.715Z,17.80
2023-01-26T22:29:56.583Z,17.80
2023-01-26T22:32:25.606Z,17.70
2023-01-26T22:34:54.610Z,17.70
2023-01-26T22:37:25.185Z,17.70
2023-01-26T22:39:54.184Z,17.70
2023-01-26T22:42:23.569Z,17.60
2023-01-26T22:44:52.501Z,17.60
2023-01-26T22:47:21.465Z,17.60
2023-01-26T22:49:50.501Z,17.60
2023-01-26T22:52:19.373Z,17.60
2023-01-26T22:54:48.479Z,17.60
2023-01-26T22:57:17.622Z,17.50
2023-01-26T22:59:46.489Z,17.50
2023-01-26T23:02:15.583Z,17.60
2023-01-26T23:04:44.470Z,17.60
2023-01-26T23:07:13.376Z,17.80
2023-01-26T23:09:42.307Z,17.90
2023-01-26T23:12:11.286Z,18.00
2023-01-26T23:14:40.264Z,18.10
2023-01-26T23:17:09.395Z,18.20
2023-01-26T23:19:38.277Z,18.30
2023-01-26T23:22:07.286Z,18.40
2023-01-26T23:24:36.781Z,18.40
2023-01-26T23:27:05.675Z,18.40
2023-01-26T23:29:34.553Z,18.40
2023-01-26T23:32:03.478Z,18.40
2023-01-26T23:34:32.405Z,18.40
2023-01-26T23:37:01.299Z,18.40
2023-01-26T23:39:30.137Z,18.40
2023-01-26T23:41:58.974Z,18.40
2023-01-26T23:44:27.867Z,18.40
2023-01-26T23:46:56.813Z,18.30
2023-01-26T23:49:25.742Z,18.30
2023-01-26T23:51:54.659Z,18.30
2023-01-26T23:54:23.571Z,18.30
2023-01-26T23:56:52.508Z,18.30
2023-01-26T23:59:22.056Z,18.20
